Time;durP1;ratioP1;P1;durP2;ratioP2;P2;SDS_P1;SDS_P2;PMS_P1;PMS_P2;Temp;Humidity;BMP_temperature;BMP_pressure;BME280_temperature;BME280_humidity;BME280_pressure;Samples;Min_cycle;Max_cycle;Signal;HPM_P1;HPM_P2
2023/06/17 00:00:14;;;;;;;11.98;8.55;;;15.20;99.90;;;;;;5012843;28;20033;-85
2023/06/17 00:02:40;;;;;;;10.57;6.95;;;15.20;99.90;;;;;;5011693;28;20108;-86
2023/06/17 00:05:05;;;;;;;10.10;7.30;;;15.20;99.90;;;;;;5009550;28;20028;-86
2023/06/17 00:07:31;;;;;;;10.65;6.65;;;15.20;99.90;;;;;;5004925;28;20026;-86
2023/06/17 00:09:56;;;;;;;10.40;7.55;;;15.20;99.90;;;;;;5011912;28;20467;-87
2023/06/17 00:12:24;;;;;;;9.88;6.70;;;15.20;99.90;;;;;;5007305;28;20037;-87
2023/06/17 00:14:51;;;;;;;11.07;6.78;;;15.20;99.90;;;;;;5007482;28;20034;-86
2023/06/17 00:17:17;;;;;;;10.65;7.57;;;15.20;99.90;;;;;;5010125;28;20076;-87
2023/06/17 00:19:42;;;;;;;10.40;6.97;;;15.20;99.90;;;;;;5006915;28;20026;-87
2023/06/17 00:22:08;;;;;;;13.45;7.85;;;15.20;99.90;;;;;;5005687;28;20022;-87
2023/06/17 00:24:38;;;;;;;18.65;8.00;;;15.20;99.90;;;;;;5004777;28;20037;-85
2023/06/17 00:27:04;;;;;;;14.52;7.88;;;15.20;99.90;;;;;;5010659;28;20072;-86
2023/06/17 00:29:30;;;;;;;9.52;6.72;;;15.10;99.90;;;;;;5008933;28;20030;-87
2023/06/17 00:31:57;;;;;;;8.27;6.68;;;15.10;99.90;;;;;;5011722;28;20113;-85
2023/06/17 00:34:22;;;;;;;12.82;7.47;;;15.10;99.90;;;;;;5012708;28;20116;-87
2023/06/17 00:36:48;;;;;;;8.23;7.35;;;15.10;99.90;;;;;;5010349;28;20473;-86
2023/06/17 00:39:15;;;;;;;12.32;8.38;;;15.00;99.90;;;;;;5016514;28;20040;-87
2023/06/17 00:41:40;;;;;;;10.55;7.25;;;15.00;99.90;;;;;;5004143;28;20030;-86
2023/06/17 00:44:06;;;;;;;12.90;8.07;;;15.00;99.90;;;;;;5016752;28;20036;-87
2023/06/17 00:46:40;;;;;;;10.13;7.82;;;15.00;99.90;;;;;;5004972;28;20047;-86
2023/06/17 00:49:09;;;;;;;8.48;7.38;;;14.90;99.90;;;;;;5007322;28;20021;-86
2023/06/17 00:51:36;;;;;;;15.30;7.63;;;14.90;99.90;;;;;;5007063;28;20032;-86
2023/06/17 00:54:02;;;;;;;12.05;7.90;;;14.90;99.90;;;;;;5007402;28;20484;-85
2023/06/17 00:56:31;;;;;;;11.43;8.82;;;14.90;99.90;;;;;;5006850;28;20061;-86
2023/06/17 00:58:57;;;;;;;9.65;8.07;;;14.90;99.90;;;;;;5006130;28;20034;-87
2023/06/17 01:01:26;;;;;;;13.20;8.23;;;15.00;99.90;;;;;;5008678;28;20116;-86
2023/06/17 01:03:53;;;;;;;17.00;8.55;;;15.00;99.90;;;;;;5010444;28;20037;-86
2023/06/17 01:06:36;;;;;;;14.48;8.65;;;15.00;99.90;;;;;;5004124;28;20084;-86
2023/06/17 01:09:09;;;;;;;9.48;7.50;;;15.00;99.90;;;;;;5007679;28;20105;-86
2023/06/17 01:11:39;;;;;;;8.15;7.30;;;15.00;99.90;;;;;;5006002;28;20029;-86
2023/06/17 01:14:08;;;;;;;12.43;8.38;;;15.00;99.90;;;;;;5009619;28;20058;-86
2023/06/17 01:16:40;;;;;;;12.57;8.65;;;15.00;99.90;;;;;;5011410;28;20553;-86
2023/06/17 01:19:18;;;;;;;13.82;9.02;;;15.10;99.90;;;;;;5007491;28;20029;-87
2023/06/17 01:21:53;;;;;;;10.13;7.97;;;15.00;99.90;;;;;;5013910;28;20511;-86
2023/06/17 01:24:28;;;;;;;11.00;8.88;;;15.00;99.90;;;;;;5007732;28;20048;-87
2023/06/17 01:27:02;;;;;;;12.38;8.18;;;15.00;99.90;;;;;;5010223;28;20037;-86
2023/06/17 01:29:32;;;;;;;14.10;9.10;;;14.90;99.90;;;;;;5016267;28;20314;-87
2023/06/17 01:32:00;;;;;;;12.00;8.18;;;15.00;99.90;;;;;;5010489;28;20025;-87
2023/06/17 01:34:33;;;;;;;14.35;8.73;;;14.90;99.90;;;;;;5014933;28;20490;-86
2023/06/17 01:36:59;;;;;;;10.95;8.25;;;14.90;99.90;;;;;;5011825;28;20042;-87
2023/06/17 01:39:30;;;;;;;12.93;9.65;;;14.90;99.90;;;;;;5018157;28;20045;-87
2023/06/17 01:41:58;;;;;;;15.82;9.60;;;14.80;99.90;;;;;;5012421;28;20033;-87
2023/06/17 01:44:26;;;;;;;15.50;8.18;;;14.80;99.90;;;;;;5019613;28;20044;-87
2023/06/17 01:46:52;;;;;;;14.88;9.13;;;14.80;99.90;;;;;;5006765;28;20061;-87
2023/06/17 01:49:17;;;;;;;11.98;8.32;;;14.80;99.90;;;;;;5009468;28;20029;-87
2023/06/17 01:51:43;;;;;;;12.40;8.40;;;14.70;99.90;;;;;;5008808;28;20060;-86
2023/06/17 01:54:08;;;;;;;13.48;8.00;;;14.70;99.90;;;;;;5009494;28;20030;-87
2023/06/17 01:56:34;;;;;;;12.80;9.65;;;14.70;99.90;;;;;;5012174;28;20065;-87
2023/06/17 01:59:00;;;;;;;11.40;9.23;;;14.70;99.90;;;;;;5007561;28;20040;-87
2023/06/17 02:01:26;;;;;;;15.07;8.80;;;14.70;99.90;;;;;;5006987;28;20036;-87
2023/06/17 02:03:54;;;;;;;13.32;9.85;;;14.70;99.90;;;;;;5015213;28;20029;-86
2023/06/17 02:06:20;;;;;;;18.88;9.93;;;14.80;99.90;;;;;;5006287;28;20113;-87
2023/06/17 02:08:47;;;;;;;13.50;10.25;;;14.80;99.90;;;;;;5014906;28;20112;-87
2023/06/17 02:11:13;;;;;;;11.75;8.15;;;14.90;99.90;;;;;;5007520;28;20101;-87
2023/06/17 02:13:38;;;;;;;14.20;10.45;;;15.00;99.90;;;;;;5003392;28;20033;-87
2023/06/17 02:16:07;;;;;;;11.32;9.32;;;15.00;99.90;;;;;;5006089;28;20032;-88
2023/06/17 02:18:33;;;;;;;13.95;10.55;;;15.10;99.90;;;;;;5014800;28;20022;-87
2023/06/17 02:21:00;;;;;;;13.38;9.88;;;15.20;99.90;;;;;;5008955;28;20049;-87
2023/06/17 02:23:26;;;;;;;13.15;9.07;;;15.20;99.90;;;;;;5012543;28;20030;-87
2023/06/17 02:25:51;;;;;;;19.38;10.20;;;15.30;99.90;;;;;;5006508;28;20598;-86
2023/06/17 02:28:17;;;;;;;14.10;9.32;;;15.30;99.90;;;;;;5020620;28;20054;-87
2023/06/17 02:30:43;;;;;;;18.90;8.77;;;15.30;99.90;;;;;;5014163;28;20527;-87
2023/06/17 02:33:08;;;;;;;12.88;9.05;;;15.30;99.90;;;;;;5006234;28;20026;-86
2023/06/17 02:35:35;;;;;;;10.27;7.90;;;15.30;99.90;;;;;;5016116;28;20034;-87
2023/06/17 02:38:00;;;;;;;9.93;8.25;;;15.20;99.90;;;;;;5008852;28;20467;-87
2023/06/17 02:40:26;;;;;;;14.38;9.10;;;15.20;99.90;;;;;;5004177;28;20041;-85
2023/06/17 02:42:51;;;;;;;10.88;7.30;;;15.10;99.90;;;;;;5015807;28;20042;-86
2023/06/17 02:45:17;;;;;;;9.48;7.55;;;15.10;99.90;;;;;;5022421;28;20058;-87
2023/06/17 02:47:43;;;;;;;15.18;9.23;;;15.00;99.90;;;;;;5006320;28;20411;-87
2023/06/17 02:50:09;;;;;;;9.02;7.30;;;15.00;99.90;;;;;;5007515;28;20022;-86
2023/06/17 02:52:37;;;;;;;11.88;9.02;;;14.90;99.90;;;;;;5007595;28;20026;-87
2023/06/17 02:55:03;;;;;;;14.32;8.65;;;14.80;99.90;;;;;;5007349;28;20478;-87
2023/06/17 02:57:28;;;;;;;12.00;8.18;;;14.80;99.90;;;;;;5006859;28;20137;-87
2023/06/17 02:59:54;;;;;;;19.13;9.45;;;14.80;99.90;;;;;;5010520;28;20025;-86
2023/06/17 03:02:20;;;;;;;14.57;8.52;;;14.70;99.90;;;;;;4992349;28;20026;-87
2023/06/17 03:04:46;;;;;;;12.80;8.88;;;14.70;99.90;;;;;;5007247;28;20046;-87
2023/06/17 03:07:12;;;;;;;10.40;7.35;;;14.60;99.90;;;;;;5000934;28;20157;-86
2023/06/17 03:09:37;;;;;;;15.85;9.57;;;14.60;99.90;;;;;;5009620;28;20071;-87
2023/06/17 03:12:06;;;;;;;13.45;8.70;;;14.50;99.90;;;;;;5010858;28;20029;-87
2023/06/17 03:14:31;;;;;;;15.05;9.20;;;14.50;99.90;;;;;;5012288;28;20414;-87
2023/06/17 03:17:00;;;;;;;13.55;9.27;;;14.50;99.90;;;;;;5011755;28;20041;-87
2023/06/17 03:19:27;;;;;;;12.95;7.75;;;14.50;99.90;;;;;;5009006;28;20053;-85
2023/06/17 03:21:52;;;;;;;14.27;8.57;;;14.40;99.90;;;;;;5022067;28;20038;-88
2023/06/17 03:24:19;;;;;;;10.90;8.20;;;14.40;99.90;;;;;;5013005;28;20298;-88
2023/06/17 03:26:45;;;;;;;13.80;8.48;;;14.40;99.90;;;;;;5014287;28;20091;-87
2023/06/17 03:29:11;;;;;;;14.98;8.57;;;14.40;99.90;;;;;;5021406;28;20426;-87
2023/06/17 03:31:37;;;;;;;11.70;9.30;;;14.30;99.90;;;;;;5011535;28;20022;-85
2023/06/17 03:34:02;;;;;;;14.50;8.93;;;14.30;99.90;;;;;;5009184;28;20029;-87
2023/06/17 03:36:29;;;;;;;14.65;9.60;;;14.30;99.90;;;;;;5007948;28;20138;-87
2023/06/17 03:38:56;;;;;;;10.20;8.43;;;14.30;99.90;;;;;;5012273;28;20026;-88
2023/06/17 03:41:25;;;;;;;16.13;9.50;;;14.30;99.90;;;;;;5016154;28;20033;-88
2023/06/17 03:43:53;;;;;;;18.27;9.60;;;14.20;99.90;;;;;;5008208;28;20376;-86
2023/06/17 03:46:19;;;;;;;14.90;11.57;;;14.20;99.90;;;;;;5015549;28;20046;-89
2023/06/17 03:48:45;;;;;;;18.33;12.98;;;14.20;99.90;;;;;;5009254;28;20124;-88
2023/06/17 03:51:11;;;;;;;19.45;10.93;;;14.30;99.90;;;;;;5004626;28;20439;-87
2023/06/17 03:53:37;;;;;;;23.80;12.48;;;14.30;99.90;;;;;;5003403;28;20566;-88
2023/06/17 03:56:03;;;;;;;15.55;11.25;;;14.40;99.90;;;;;;5009370;28;20072;-88
2023/06/17 03:58:28;;;;;;;24.35;12.35;;;14.40;99.90;;;;;;5013133;28;20033;-87
2023/06/17 04:00:54;;;;;;;19.77;12.98;;;14.40;99.90;;;;;;5006920;28;20108;-88
2023/06/17 04:03:24;;;;;;;23.20;13.52;;;14.50;99.90;;;;;;5015470;28;20026;-88
2023/06/17 04:05:53;;;;;;;18.90;12.68;;;14.50;99.90;;;;;;5008652;28;20513;-87
2023/06/17 04:08:19;;;;;;;17.55;12.27;;;14.50;99.90;;;;;;5001114;28;20034;-89
2023/06/17 04:10:47;;;;;;;17.83;11.80;;;14.60;99.90;;;;;;5008621;28;20026;-87
2023/06/17 04:13:14;;;;;;;22.08;12.88;;;14.50;99.90;;;;;;5014216;28;20093;-87
2023/06/17 04:15:39;;;;;;;19.83;15.25;;;14.60;99.90;;;;;;5003503;28;20025;-88
2023/06/17 04:18:06;;;;;;;19.38;14.23;;;14.70;99.90;;;;;;5012035;28;20040;-88
2023/06/17 04:20:34;;;;;;;19.13;13.20;;;14.70;99.90;;;;;;5009869;28;20033;-87
2023/06/17 04:23:00;;;;;;;17.10;12.60;;;14.70;99.90;;;;;;5011055;28;20040;-87
2023/06/17 04:25:27;;;;;;;16.05;13.10;;;14.80;99.90;;;;;;5010503;28;20014;-89
2023/06/17 04:27:53;;;;;;;16.33;13.13;;;14.80;99.90;;;;;;5009330;28;20057;-87
2023/06/17 04:30:21;;;;;;;23.52;15.27;;;14.90;99.90;;;;;;5009980;28;20502;-88
2023/06/17 04:32:47;;;;;;;22.85;14.85;;;15.00;99.90;;;;;;5014179;28;20033;-88
2023/06/17 04:35:13;;;;;;;25.98;15.77;;;15.00;99.90;;;;;;5004130;28;20084;-87
2023/06/17 04:37:40;;;;;;;26.95;16.70;;;15.10;99.90;;;;;;5006687;28;20037;-87
2023/06/17 04:40:10;;;;;;;23.52;16.73;;;15.30;99.90;;;;;;5009778;28;20121;-86
2023/06/17 04:42:36;;;;;;;24.48;15.25;;;15.40;99.90;;;;;;5008037;28;20419;-89
2023/06/17 04:45:02;;;;;;;24.42;15.05;;;15.50;99.90;;;;;;5009784;28;20048;-87
2023/06/17 04:47:28;;;;;;;29.85;16.55;;;15.50;99.90;;;;;;5014799;28;20064;-88
2023/06/17 04:49:54;;;;;;;24.67;14.27;;;15.50;99.90;;;;;;5013309;28;20029;-89
2023/06/17 04:52:24;;;;;;;23.48;15.18;;;15.60;99.90;;;;;;5008583;28;20021;-85
2023/06/17 04:54:50;;;;;;;19.23;13.35;;;15.60;99.90;;;;;;5010791;28;20399;-88
2023/06/17 04:57:16;;;;;;;19.75;13.35;;;15.70;99.90;;;;;;5008956;28;20117;-88
2023/06/17 04:59:42;;;;;;;21.30;14.32;;;15.70;99.90;;;;;;5007093;28;20112;-88
2023/06/17 05:02:07;;;;;;;26.52;14.98;;;15.70;99.90;;;;;;5006427;28;20475;-88
2023/06/17 05:04:35;;;;;;;21.27;14.55;;;15.70;99.90;;;;;;5005251;28;20074;-88
2023/06/17 05:07:01;;;;;;;18.88;12.85;;;15.80;99.90;;;;;;5006266;28;20026;-91
2023/06/17 05:09:27;;;;;;;22.90;14.90;;;15.80;99.90;;;;;;5008087;28;20452;-89
2023/06/17 05:11:52;;;;;;;20.52;14.63;;;15.80;99.90;;;;;;5007572;28;20403;-89
2023/06/17 05:14:18;;;;;;;21.05;15.40;;;15.90;99.90;;;;;;5009356;28;20080;-90
2023/06/17 05:16:43;;;;;;;23.17;16.02;;;15.90;99.90;;;;;;5005331;28;20403;-90
2023/06/17 05:19:09;;;;;;;29.67;17.27;;;15.90;99.90;;;;;;5009654;28;20141;-90
2023/06/17 05:21:34;;;;;;;33.92;15.75;;;16.00;99.90;;;;;;5008554;28;20022;-90
2023/06/17 05:24:00;;;;;;;18.63;15.05;;;15.90;99.90;;;;;;5005635;28;20025;-89
2023/06/17 05:26:27;;;;;;;22.40;16.23;;;16.00;99.90;;;;;;5007163;28;20029;-85
2023/06/17 05:28:53;;;;;;;23.98;16.52;;;15.90;99.90;;;;;;5016741;28;20026;-87
2023/06/17 05:31:18;;;;;;;23.10;16.27;;;15.80;99.90;;;;;;5006006;28;20350;-88
2023/06/17 05:33:44;;;;;;;26.00;16.45;;;15.90;99.90;;;;;;5005360;28;20242;-87
2023/06/17 05:36:09;;;;;;;23.35;17.38;;;15.80;99.90;;;;;;5005697;28;20045;-89
2023/06/17 05:38:36;;;;;;;26.92;15.68;;;15.80;99.90;;;;;;5004957;28;20036;-86
2023/06/17 05:41:02;;;;;;;25.00;17.10;;;15.80;99.90;;;;;;5006597;28;20080;-89
2023/06/17 05:43:28;;;;;;;24.92;17.88;;;15.80;99.90;;;;;;5006277;28;20475;-87
2023/06/17 05:45:54;;;;;;;25.42;16.67;;;15.80;99.90;;;;;;5002870;28;20030;-88
2023/06/17 05:48:20;;;;;;;25.55;16.33;;;15.80;99.90;;;;;;5014211;28;20021;-88
2023/06/17 05:50:46;;;;;;;22.90;17.00;;;15.70;99.90;;;;;;5008147;28;20156;-89
2023/06/17 05:53:12;;;;;;;33.15;17.40;;;15.70;99.90;;;;;;5007992;28;20025;-88
2023/06/17 05:55:37;;;;;;;21.73;15.32;;;15.60;99.90;;;;;;5015577;28;20021;-89
2023/06/17 05:58:03;;;;;;;27.08;17.42;;;15.60;99.90;;;;;;5001909;28;20092;-89
2023/06/17 06:00:32;;;;;;;30.48;17.70;;;15.70;99.90;;;;;;5004860;28;20076;-87
2023/06/17 06:02:57;;;;;;;23.98;16.77;;;15.70;99.90;;;;;;5008754;28;20242;-89
2023/06/17 06:05:23;;;;;;;24.33;16.65;;;15.60;99.90;;;;;;5011607;28;20108;-88
2023/06/17 06:07:48;;;;;;;26.15;16.33;;;15.60;99.90;;;;;;5007715;28;20084;-88
2023/06/17 06:10:15;;;;;;;21.75;14.35;;;15.60;99.90;;;;;;5007170;28;20117;-87
2023/06/17 06:12:44;;;;;;;24.55;16.63;;;15.60;99.90;;;;;;5003828;28;20530;-86
2023/06/17 06:15:09;;;;;;;28.60;16.83;;;15.60;99.90;;;;;;4998740;28;20125;-89
2023/06/17 06:17:35;;;;;;;26.13;17.60;;;15.60;99.90;;;;;;5005951;28;20120;-89
2023/06/17 06:20:00;;;;;;;27.63;18.25;;;15.70;99.90;;;;;;5002144;28;20058;-89
2023/06/17 06:22:26;;;;;;;30.35;16.48;;;15.80;99.90;;;;;;5008060;28;20080;-89
2023/06/17 06:24:51;;;;;;;28.65;17.15;;;15.80;99.90;;;;;;5006624;28;20048;-88
2023/06/17 06:27:17;;;;;;;28.77;16.08;;;16.00;99.90;;;;;;5008736;28;20034;-89
2023/06/17 06:29:42;;;;;;;32.05;16.65;;;15.90;99.90;;;;;;5012170;28;20033;-89
2023/06/17 06:32:08;;;;;;;22.42;16.13;;;16.00;99.90;;;;;;5015532;28;20140;-88
2023/06/17 06:34:34;;;;;;;28.50;16.90;;;16.10;99.90;;;;;;5010257;28;20037;-89
2023/06/17 06:37:00;;;;;;;25.80;16.80;;;16.10;99.90;;;;;;5008886;28;20046;-89
2023/06/17 06:39:26;;;;;;;34.55;18.92;;;16.20;99.90;;;;;;5006635;28;20582;-91
2023/06/17 06:41:52;;;;;;;30.70;18.95;;;16.20;99.90;;;;;;5005844;28;20182;-86
2023/06/17 06:44:18;;;;;;;25.67;17.60;;;16.30;99.90;;;;;;5009965;28;20096;-89
2023/06/17 06:46:45;;;;;;;28.85;19.17;;;16.30;99.90;;;;;;5007526;28;20044;-93
2023/06/17 06:49:11;;;;;;;28.42;18.25;;;16.30;99.90;;;;;;5008219;28;20479;-89
2023/06/17 06:51:36;;;;;;;28.90;17.95;;;16.40;99.90;;;;;;5027988;28;20093;-87
2023/06/17 06:54:05;;;;;;;23.50;16.58;;;16.40;99.90;;;;;;5011490;28;20125;-89
2023/06/17 06:56:31;;;;;;;30.25;20.10;;;16.40;99.90;;;;;;5011161;28;20508;-89
2023/06/17 06:58:56;;;;;;;29.02;17.25;;;16.50;99.90;;;;;;5008908;28;20042;-89
2023/06/17 07:01:26;;;;;;;31.95;19.00;;;16.50;99.90;;;;;;5008087;28;20494;-91
2023/06/17 07:03:52;;;;;;;26.88;17.25;;;16.50;99.90;;;;;;5011310;28;20399;-90
2023/06/17 07:06:18;;;;;;;33.78;20.33;;;16.60;99.90;;;;;;5024076;28;20029;-90
2023/06/17 07:08:43;;;;;;;34.60;17.60;;;16.70;99.90;;;;;;5007351;28;20037;-92
2023/06/17 07:11:09;;;;;;;38.90;19.52;;;16.80;99.90;;;;;;5009501;28;20104;-90
2023/06/17 07:13:34;;;;;;;30.48;18.83;;;16.90;99.90;;;;;;5012361;28;20053;-90
2023/06/17 07:16:00;;;;;;;27.70;16.13;;;16.90;99.90;;;;;;5010294;28;20038;-90
2023/06/17 07:18:26;;;;;;;33.05;18.60;;;17.00;99.90;;;;;;5005844;28;20023;-92
2023/06/17 07:20:51;;;;;;;27.23;18.40;;;17.00;99.90;;;;;;5012408;28;20022;-91
2023/06/17 07:23:17;;;;;;;30.25;17.65;;;17.10;99.90;;;;;;5004449;28;20026;-87
2023/06/17 07:25:43;;;;;;;27.63;16.60;;;17.20;99.90;;;;;;5011227;28;20049;-91
2023/06/17 07:28:08;;;;;;;27.42;14.65;;;17.20;99.90;;;;;;5004572;28;20033;-91
2023/06/17 07:30:34;;;;;;;32.17;16.70;;;17.20;99.90;;;;;;5011175;28;20471;-89
2023/06/17 07:33:00;;;;;;;19.15;12.85;;;17.30;99.90;;;;;;5007302;28;20032;-90
2023/06/17 07:35:25;;;;;;;18.27;12.38;;;17.40;99.90;;;;;;5010347;28;20025;-87
2023/06/17 07:37:52;;;;;;;14.25;10.13;;;17.50;99.90;;;;;;4965299;22;20052;-90
2023/06/17 07:40:17;;;;;;;23.27;12.48;;;17.50;99.90;;;;;;5030172;28;20031;-90
2023/06/17 07:42:43;;;;;;;25.50;13.82;;;17.60;99.90;;;;;;5047984;28;20017;-90
2023/06/17 07:45:09;;;;;;;16.42;11.43;;;17.70;99.90;;;;;;5045760;28;20083;-88
2023/06/17 07:47:35;;;;;;;18.35;12.38;;;17.70;99.90;;;;;;5030528;28;20441;-88
2023/06/17 07:50:01;;;;;;;24.00;11.70;;;17.80;99.90;;;;;;5049958;28;20025;-88
2023/06/17 07:52:26;;;;;;;18.50;10.95;;;17.80;99.90;;;;;;5046864;28;20029;-87
2023/06/17 07:54:52;;;;;;;19.00;11.50;;;17.90;99.90;;;;;;5046121;28;20029;-91
2023/06/17 07:57:18;;;;;;;17.33;11.70;;;18.00;99.90;;;;;;5048915;28;20110;-87
2023/06/17 07:59:44;;;;;;;16.52;11.05;;;18.10;99.90;;;;;;5047771;28;20025;-89
2023/06/17 08:02:10;;;;;;;12.82;8.82;;;18.10;99.90;;;;;;5046654;28;20158;-84
2023/06/17 08:04:37;;;;;;;27.15;10.85;;;18.20;99.90;;;;;;5043504;28;20021;-89
2023/06/17 08:07:03;;;;;;;12.93;10.23;;;18.20;99.90;;;;;;5041311;28;20038;-88
2023/06/17 08:09:29;;;;;;;17.60;11.13;;;18.30;99.90;;;;;;5047262;28;20487;-87
2023/06/17 08:11:55;;;;;;;23.45;13.27;;;18.30;99.90;;;;;;5045882;28;20113;-86
2023/06/17 08:14:22;;;;;;;15.45;10.88;;;18.40;99.90;;;;;;5044276;28;20470;-86
2023/06/17 08:16:47;;;;;;;14.82;9.25;;;18.40;99.90;;;;;;5047627;28;20052;-89
2023/06/17 08:19:13;;;;;;;16.20;10.18;;;18.40;99.90;;;;;;5047174;28;20029;-90
2023/06/17 08:21:41;;;;;;;16.88;10.88;;;18.50;99.90;;;;;;5044990;28;20398;-89
2023/06/17 08:24:21;;;;;;;17.48;12.05;;;18.60;99.90;;;;;;5046531;28;20499;-88
2023/06/17 08:26:47;;;;;;;24.15;11.25;;;18.70;99.90;;;;;;5048824;28;20520;-86
2023/06/17 08:29:14;;;;;;;26.15;13.68;;;18.70;99.90;;;;;;5049021;28;20037;-88
2023/06/17 08:31:42;;;;;;;19.10;12.00;;;18.70;99.90;;;;;;5049304;28;20444;-88
2023/06/17 08:34:08;;;;;;;22.30;13.82;;;18.70;99.90;;;;;;5046880;28;20025;-83
2023/06/17 08:36:33;;;;;;;23.55;12.15;;;18.70;99.90;;;;;;5052671;28;20040;-86
2023/06/17 08:39:00;;;;;;;16.27;11.02;;;18.70;99.90;;;;;;5050575;28;20417;-86
2023/06/17 08:41:27;;;;;;;22.83;12.48;;;18.70;99.90;;;;;;5049981;28;20120;-85
2023/06/17 08:43:56;;;;;;;18.52;11.45;;;18.80;99.90;;;;;;5050402;28;20038;-85
2023/06/17 08:46:24;;;;;;;17.95;11.15;;;18.90;99.90;;;;;;5043939;28;20029;-88
2023/06/17 08:48:51;;;;;;;19.30;12.48;;;18.90;99.90;;;;;;5044057;28;20546;-88
2023/06/17 08:51:17;;;;;;;19.55;12.32;;;19.00;99.90;;;;;;5045579;28;20028;-89
2023/06/17 08:53:44;;;;;;;18.25;12.55;;;19.00;99.90;;;;;;5048736;28;20056;-86
2023/06/17 08:56:13;;;;;;;16.58;9.90;;;18.90;99.90;;;;;;5042454;28;20045;-85
2023/06/17 08:58:39;;;;;;;16.13;9.88;;;18.90;99.90;;;;;;5042345;28;20052;-87
2023/06/17 09:01:08;;;;;;;18.77;10.05;;;18.80;99.90;;;;;;5028091;28;20021;-87
2023/06/17 09:03:36;;;;;;;14.27;9.68;;;18.90;99.90;;;;;;5042799;28;20120;-87
2023/06/17 09:06:34;;;;;;;19.02;11.10;;;18.90;99.90;;;;;;5044232;28;20040;-86
2023/06/17 09:09:00;;;;;;;17.45;10.05;;;19.10;99.90;;;;;;5018671;28;20045;-90
2023/06/17 09:11:28;;;;;;;12.80;9.48;;;19.30;99.90;;;;;;5041871;28;20036;-89
2023/06/17 09:13:58;;;;;;;16.00;10.50;;;19.30;99.90;;;;;;5037453;28;20128;-88
2023/06/17 09:16:34;;;;;;;20.33;10.57;;;19.40;99.90;;;;;;5041083;28;20033;-87
2023/06/17 09:19:04;;;;;;;23.83;11.35;;;19.40;99.90;;;;;;5039850;28;20348;-91
2023/06/17 09:21:30;;;;;;;20.50;10.82;;;19.50;99.90;;;;;;5044525;28;20032;-90
2023/06/17 09:23:57;;;;;;;21.70;14.02;;;19.60;99.90;;;;;;5045868;28;20025;-88
2023/06/17 09:26:29;;;;;;;18.50;10.88;;;19.70;99.90;;;;;;5046835;28;20036;-88
2023/06/17 09:29:02;;;;;;;16.92;10.52;;;19.70;99.90;;;;;;5047342;28;20025;-89
2023/06/17 09:31:29;;;;;;;17.45;10.38;;;19.70;99.90;;;;;;5046829;28;20424;-88
2023/06/17 09:33:56;;;;;;;15.70;11.23;;;19.70;99.90;;;;;;5038170;28;20066;-90
2023/06/17 09:36:22;;;;;;;21.20;13.40;;;19.70;99.90;;;;;;5044200;28;20123;-90
2023/06/17 09:38:51;;;;;;;20.05;11.93;;;19.70;99.90;;;;;;5043501;28;20048;-90
2023/06/17 09:41:20;;;;;;;21.52;13.98;;;19.70;99.90;;;;;;5028002;28;20021;-85
2023/06/17 09:43:53;;;;;;;17.67;10.95;;;19.60;99.90;;;;;;5044976;28;20063;-89
2023/06/17 09:46:25;;;;;;;22.58;13.65;;;19.70;99.90;;;;;;5044730;28;20032;-89
2023/06/17 09:48:51;;;;;;;22.65;12.25;;;19.80;99.90;;;;;;5039325;28;20068;-89
2023/06/17 09:51:21;;;;;;;15.27;11.55;;;19.70;99.90;;;;;;5039729;28;20441;-90
2023/06/17 09:53:49;;;;;;;19.90;11.40;;;19.70;99.90;;;;;;5043237;28;20476;-90
2023/06/17 09:56:18;;;;;;;20.73;11.10;;;19.80;99.90;;;;;;5041315;28;20040;-91
2023/06/17 09:58:44;;;;;;;15.52;9.60;;;19.80;99.90;;;;;;5044976;28;20140;-90
2023/06/17 10:01:11;;;;;;;15.73;10.40;;;19.90;99.90;;;;;;5044824;28;20697;-90
2023/06/17 10:03:37;;;;;;;19.63;11.85;;;19.90;99.90;;;;;;5030487;28;20080;-89
2023/06/17 10:06:10;;;;;;;22.02;11.18;;;20.00;99.90;;;;;;5024345;28;20041;-89
2023/06/17 10:08:37;;;;;;;13.07;9.13;;;20.00;99.90;;;;;;5044583;28;20041;-91
2023/06/17 10:11:02;;;;;;;15.00;8.93;;;20.00;99.90;;;;;;5045942;28;20086;-90
2023/06/17 10:13:33;;;;;;;11.75;8.55;;;19.90;99.90;;;;;;5042655;28;20060;-87
2023/06/17 10:16:00;;;;;;;13.57;8.35;;;19.90;99.90;;;;;;5043500;28;20044;-90
2023/06/17 10:18:28;;;;;;;16.83;8.00;;;19.80;99.90;;;;;;5045078;28;20048;-86
2023/06/17 10:20:55;;;;;;;16.80;8.50;;;19.80;99.90;;;;;;5036446;28;20369;-91
2023/06/17 10:23:22;;;;;;;11.30;8.45;;;19.80;99.90;;;;;;5039869;28;20024;-88
2023/06/17 10:25:48;;;;;;;15.48;7.70;;;19.80;99.90;;;;;;5044542;28;20401;-91
2023/06/17 10:28:19;;;;;;;13.77;8.10;;;19.80;99.90;;;;;;5045927;28;20029;-90
2023/06/17 10:30:48;;;;;;;15.05;9.27;;;19.90;99.90;;;;;;5045793;28;20057;-92
2023/06/17 10:33:13;;;;;;;12.32;8.50;;;19.90;99.90;;;;;;5043939;28;20037;-93
2023/06/17 10:35:40;;;;;;;13.75;7.20;;;20.10;99.90;;;;;;5042872;28;20031;-91
2023/06/17 10:38:26;;;;;;;10.18;7.47;;;20.10;99.90;;;;;;5023041;28;20064;-92
2023/06/17 10:40:52;;;;;;;10.07;6.40;;;20.20;99.90;;;;;;5041429;28;20091;-88
2023/06/17 10:43:19;;;;;;;11.35;7.03;;;20.30;99.90;;;;;;5043277;28;20072;-92
2023/06/17 10:45:55;;;;;;;14.07;7.18;;;20.50;99.90;;;;;;5046360;28;20029;-90
2023/06/17 10:48:24;;;;;;;11.15;7.15;;;20.60;99.90;;;;;;5041937;28;20028;-91
2023/06/17 10:50:58;;;;;;;8.57;6.82;;;20.60;99.90;;;;;;5045141;28;20040;-94
2023/06/17 10:53:31;;;;;;;11.93;6.50;;;20.70;99.90;;;;;;5045765;28;20055;-93
2023/06/17 10:55:58;;;;;;;11.27;7.05;;;20.70;99.90;;;;;;5044127;28;20108;-91
2023/06/17 10:58:44;;;;;;;12.70;7.03;;;20.70;99.90;;;;;;5045983;28;20059;-92
2023/06/17 11:01:11;;;;;;;9.35;6.90;;;20.80;99.90;;;;;;5046165;28;20037;-91
2023/06/17 11:04:07;;;;;;;15.70;7.80;;;20.90;99.90;;;;;;5026136;28;20039;-85
2023/06/17 11:06:33;;;;;;;12.40;7.40;;;20.90;99.90;;;;;;5044856;28;20052;-86
2023/06/17 11:09:00;;;;;;;15.68;7.75;;;20.90;99.90;;;;;;5049772;28;20056;-89
2023/06/17 11:11:29;;;;;;;14.23;7.25;;;21.00;99.90;;;;;;5039981;28;20036;-89
2023/06/17 11:13:55;;;;;;;11.50;7.65;;;21.10;99.90;;;;;;5043988;28;20454;-88
2023/06/17 11:16:20;;;;;;;11.45;6.43;;;21.20;99.90;;;;;;5044462;28;20116;-89
2023/06/17 11:18:46;;;;;;;15.57;8.90;;;21.20;99.90;;;;;;5040134;28;20032;-90
2023/06/17 11:21:11;;;;;;;14.95;8.57;;;21.20;99.90;;;;;;5041703;28;20025;-90
2023/06/17 11:23:38;;;;;;;272.67;175.55;;;21.30;99.90;;;;;;5043058;28;20078;-87
2023/06/17 11:26:07;;;;;;;37.55;26.10;;;21.30;99.90;;;;;;5042489;28;20037;-88
2023/06/17 11:28:35;;;;;;;19.85;13.40;;;21.40;99.90;;;;;;5039647;28;20048;-91
2023/06/17 11:31:01;;;;;;;50.65;31.83;;;21.40;99.90;;;;;;5043443;28;20508;-88
2023/06/17 11:33:28;;;;;;;22.60;15.48;;;21.50;99.90;;;;;;5039136;28;20029;-88
2023/06/17 11:35:54;;;;;;;36.50;23.13;;;21.60;99.90;;;;;;5043197;28;20032;-88
2023/06/17 11:38:21;;;;;;;16.75;8.18;;;21.60;99.90;;;;;;5047521;28;20053;-89
2023/06/17 11:40:51;;;;;;;14.43;8.10;;;21.60;99.90;;;;;;5048034;28;20098;-88
2023/06/17 11:43:17;;;;;;;14.05;7.30;;;21.60;99.90;;;;;;5041601;28;20436;-85
2023/06/17 11:45:43;;;;;;;15.07;7.75;;;21.60;99.90;;;;;;5046456;28;20025;-89
2023/06/17 11:48:11;;;;;;;11.70;7.75;;;21.60;99.90;;;;;;5048999;28;20112;-87
2023/06/17 11:50:37;;;;;;;12.82;8.57;;;21.60;99.90;;;;;;5045679;28;20537;-84
2023/06/17 11:53:02;;;;;;;9.10;7.35;;;21.70;99.90;;;;;;5047869;28;20112;-86
2023/06/17 11:55:30;;;;;;;9.10;7.68;;;21.90;99.90;;;;;;5049397;28;20430;-86
2023/06/17 11:57:57;;;;;;;15.05;8.15;;;22.00;99.90;;;;;;5046719;28;20044;-84
2023/06/17 12:00:22;;;;;;;12.18;6.55;;;22.20;99.90;;;;;;5045703;28;20032;-88
2023/06/17 12:02:48;;;;;;;9.43;6.38;;;22.30;99.90;;;;;;5047875;28;20029;-88
2023/06/17 12:05:14;;;;;;;9.63;7.22;;;22.30;99.90;;;;;;5049411;28;20033;-87
2023/06/17 12:07:40;;;;;;;12.73;7.57;;;22.20;99.90;;;;;;5047110;28;20111;-86
2023/06/17 12:10:07;;;;;;;12.23;7.25;;;22.20;99.90;;;;;;5044102;28;20116;-84
2023/06/17 12:12:35;;;;;;;9.45;6.97;;;22.10;99.90;;;;;;5047129;28;20025;-91
2023/06/17 12:15:09;;;;;;;9.25;6.93;;;22.00;99.90;;;;;;5048843;28;20017;-86
2023/06/17 12:17:42;;;;;;;9.13;6.55;;;22.10;99.90;;;;;;5048706;28;20053;-88
2023/06/17 12:20:19;;;;;;;8.25;7.35;;;22.00;99.90;;;;;;5044703;28;20029;-86
2023/06/17 12:22:47;;;;;;;11.45;7.40;;;22.10;99.90;;;;;;5044734;28;20051;-85
2023/06/17 12:25:13;;;;;;;10.77;7.43;;;22.30;99.90;;;;;;5044528;28;20029;-90
2023/06/17 12:27:40;;;;;;;10.30;6.88;;;22.30;99.90;;;;;;5046775;28;20021;-84
2023/06/17 12:30:08;;;;;;;9.13;6.07;;;22.50;99.90;;;;;;5045116;28;20175;-88
2023/06/17 12:32:34;;;;;;;13.65;6.30;;;22.70;99.90;;;;;;5048025;28;20126;-85